sensor_id;sensor_type;location;lat;lon;timestamp;pressure;altitude;pressure_sealevel;temperature;humidity
77410;BME280;66481;51.332;22.804;2024-01-30T00:00:57;101537.50;;;-1.05;100.00
77410;BME280;66481;51.332;22.804;2024-01-30T00:05:18;101527.13;;;-1.05;100.00
77410;BME280;66481;51.332;22.804;2024-01-30T00:09:19;101523.63;;;-1.07;100.00
77410;BME280;66481;51.332;22.804;2024-01-30T00:13:20;101522.75;;;-1.11;100.00
77410;BME280;66481;51.332;22.804;2024-01-30T00:17:21;101515.81;;;-1.17;100.00
77410;BME280;66481;51.332;22.804;2024-01-30T00:21:23;101521.06;;;-1.09;100.00
77410;BME280;66481;51.332;22.804;2024-01-30T00:25:24;101514.97;;;-1.06;100.00
77410;BME280;66481;51.332;22.804;2024-01-30T00:29:25;101499.31;;;-1.25;100.00
77410;BME280;66481;51.332;22.804;2024-01-30T00:33:31;101502.81;;;-1.24;100.00
77410;BME280;66481;51.332;22.804;2024-01-30T00:37:32;101500.19;;;-1.27;100.00
77410;BME280;66481;51.332;22.804;2024-01-30T00:41:33;101498.44;;;-1.33;100.00
77410;BME280;66481;51.332;22.804;2024-01-30T00:45:35;101491.50;;;-1.36;100.00
77410;BME280;66481;51.332;22.804;2024-01-30T00:49:36;101480.25;;;-1.36;100.00
77410;BME280;66481;51.332;22.804;2024-01-30T00:53:40;101478.53;;;-1.36;100.00
77410;BME280;66481;51.332;22.804;2024-01-30T00:57:48;101474.19;;;-1.37;100.00
77410;BME280;66481;51.332;22.804;2024-01-30T01:01:52;101473.31;;;-1.37;100.00
77410;BME280;66481;51.332;22.804;2024-01-30T01:05:53;101476.78;;;-1.38;100.00
77410;BME280;66481;51.332;22.804;2024-01-30T01:09:54;101475.97;;;-1.20;100.00
77410;BME280;66481;51.332;22.804;2024-01-30T01:13:55;101480.34;;;-1.07;100.00
77410;BME280;66481;51.332;22.804;2024-01-30T01:17:57;101469.97;;;-0.88;100.00
77410;BME280;66481;51.332;22.804;2024-01-30T01:21:58;101453.53;;;-0.95;100.00
77410;BME280;66481;51.332;22.804;2024-01-30T01:25:59;101446.59;;;-0.96;100.00
77410;BME280;66481;51.332;22.804;2024-01-30T01:30:01;101441.41;;;-0.85;100.00
77410;BME280;66481;51.332;22.804;2024-01-30T01:34:06;101432.75;;;-0.89;100.00
77410;BME280;66481;51.332;22.804;2024-01-30T01:38:07;101414.56;;;-0.95;100.00
77410;BME280;66481;51.332;22.804;2024-01-30T01:42:08;101423.25;;;-0.90;100.00
77410;BME280;66481;51.332;22.804;2024-01-30T01:46:09;101415.41;;;-0.87;100.00
77410;BME280;66481;51.332;22.804;2024-01-30T01:50:10;101406.75;;;-0.93;100.00
77410;BME280;66481;51.332;22.804;2024-01-30T01:54:12;101403.28;;;-0.97;100.00
77410;BME280;66481;51.332;22.804;2024-01-30T01:58:18;101394.66;;;-1.04;100.00
77410;BME280;66481;51.332;22.804;2024-01-30T02:02:22;101392.91;;;-1.06;100.00
77410;BME280;66481;51.332;22.804;2024-01-30T02:06:24;101396.38;;;-1.09;100.00
77410;BME280;66481;51.332;22.804;2024-01-30T02:10:25;101405.00;;;-1.13;100.00
77410;BME280;66481;51.332;22.804;2024-01-30T02:14:26;101394.56;;;-1.28;100.00
77410;BME280;66481;51.332;22.804;2024-01-30T02:18:27;101377.22;;;-1.40;100.00
77410;BME280;66481;51.332;22.804;2024-01-30T02:22:29;101372.94;;;-1.41;100.00
77410;BME280;66481;51.332;22.804;2024-01-30T02:26:30;101377.25;;;-1.39;100.00
77410;BME280;66481;51.332;22.804;2024-01-30T02:30:31;101377.25;;;-1.45;100.00
77410;BME280;66481;51.332;22.804;2024-01-30T02:34:33;101359.09;;;-1.43;100.00
77410;BME280;66481;51.332;22.804;2024-01-30T02:38:34;101359.09;;;-1.42;100.00
77410;BME280;66481;51.332;22.804;2024-01-30T02:42:35;101349.56;;;-1.50;100.00
77410;BME280;66481;51.332;22.804;2024-01-30T02:46:37;101341.72;;;-1.57;100.00
77410;BME280;66481;51.332;22.804;2024-01-30T02:50:38;101347.81;;;-1.52;100.00
77410;BME280;66481;51.332;22.804;2024-01-30T02:54:39;101361.69;;;-1.33;100.00
77410;BME280;66481;51.332;22.804;2024-01-30T02:58:40;101345.25;;;-1.36;100.00
77410;BME280;66481;51.332;22.804;2024-01-30T03:02:41;101353.06;;;-1.18;100.00
77410;BME280;66481;51.332;22.804;2024-01-30T03:06:46;101347.00;;;-1.18;100.00
77410;BME280;66481;51.332;22.804;2024-01-30T03:10:50;101346.97;;;-1.21;99.81
77410;BME280;66481;51.332;22.804;2024-01-30T03:14:51;101343.53;;;-1.13;99.54
77410;BME280;66481;51.332;22.804;2024-01-30T03:18:52;101325.34;;;-1.13;99.23
77410;BME280;66481;51.332;22.804;2024-01-30T03:22:55;101328.78;;;-1.21;99.34
77410;BME280;66481;51.332;22.804;2024-01-30T03:26:56;101329.69;;;-1.18;98.90
77410;BME280;66481;51.332;22.804;2024-01-30T03:30:57;101314.09;;;-1.24;98.63
77410;BME280;66481;51.332;22.804;2024-01-30T03:34:59;101316.66;;;-1.30;99.74
77410;BME280;66481;51.332;22.804;2024-01-30T03:39:04;101314.06;;;-1.30;99.31
77410;BME280;66481;51.332;22.804;2024-01-30T03:43:05;101311.50;;;-1.24;98.91
77410;BME280;66481;51.332;22.804;2024-01-30T03:47:06;101324.47;;;-1.15;98.62
77410;BME280;66481;51.332;22.804;2024-01-30T03:51:09;101310.63;;;-1.18;97.93
77410;BME280;66481;51.332;22.804;2024-01-30T03:55:15;101300.22;;;-1.21;98.47
77410;BME280;66481;51.332;22.804;2024-01-30T03:59:16;101288.97;;;-1.26;98.24
77410;BME280;66481;51.332;22.804;2024-01-30T04:03:18;101296.78;;;-1.20;98.07
77410;BME280;66481;51.332;22.804;2024-01-30T04:07:19;101291.56;;;-1.26;97.83
77410;BME280;66481;51.332;22.804;2024-01-30T04:11:20;101289.88;;;-1.23;98.03
77410;BME280;66481;51.332;22.804;2024-01-30T04:15:22;101288.13;;;-1.21;98.04
77410;BME280;66481;51.332;22.804;2024-01-30T04:19:23;101292.44;;;-1.17;97.77
77410;BME280;66481;51.332;22.804;2024-01-30T04:23:25;101295.03;;;-1.07;97.14
77410;BME280;66481;51.332;22.804;2024-01-30T04:27:26;101276.88;;;-1.17;97.02
77410;BME280;66481;51.332;22.804;2024-01-30T04:31:27;101279.47;;;-1.17;97.29
77410;BME280;66481;51.332;22.804;2024-01-30T04:35:29;101285.53;;;-1.19;96.92
77410;BME280;66481;51.332;22.804;2024-01-30T04:39:30;101281.19;;;-1.06;97.10
77410;BME280;66481;51.332;22.804;2024-01-30T04:43:31;101281.22;;;-1.14;97.13
77410;BME280;66481;51.332;22.804;2024-01-30T04:47:32;101327.06;;;-1.01;96.54
77410;BME280;66481;51.332;22.804;2024-01-30T04:51:33;101312.34;;;-0.96;96.16
77410;BME280;66481;51.332;22.804;2024-01-30T04:55:35;101315.84;;;-0.95;96.24
77410;BME280;66481;51.332;22.804;2024-01-30T04:59:37;101303.69;;;-1.02;95.90
77410;BME280;66481;51.332;22.804;2024-01-30T05:03:38;101316.72;;;-1.04;95.79
77410;BME280;66481;51.332;22.804;2024-01-30T05:07:41;101326.22;;;-0.86;95.16
77410;BME280;66481;51.332;22.804;2024-01-30T05:11:42;101313.22;;;-0.87;95.64
77410;BME280;66481;51.332;22.804;2024-01-30T05:15:43;101315.84;;;-1.00;94.86
77410;BME280;66481;51.332;22.804;2024-01-30T05:19:44;101329.69;;;-1.04;94.95
77410;BME280;66481;51.332;22.804;2024-01-30T05:23:46;101320.16;;;-1.11;96.05
77410;BME280;66481;51.332;22.804;2024-01-30T05:27:47;101321.88;;;-1.10;96.49
77410;BME280;66481;51.332;22.804;2024-01-30T05:31:48;101323.63;;;-1.04;96.01
77410;BME280;66481;51.332;22.804;2024-01-30T05:35:49;101319.28;;;-1.25;96.21
77410;BME280;66481;51.332;22.804;2024-01-30T05:39:51;101340.94;;;-1.14;95.67
77410;BME280;66481;51.332;22.804;2024-01-30T05:43:52;101341.78;;;-1.29;96.24
77410;BME280;66481;51.332;22.804;2024-01-30T05:47:53;101325.34;;;-1.34;96.32
77410;BME280;66481;51.332;22.804;2024-01-30T05:51:56;101338.34;;;-1.29;96.61
77410;BME280;66481;51.332;22.804;2024-01-30T05:55:57;101344.41;;;-1.12;96.24
77410;BME280;66481;51.332;22.804;2024-01-30T05:59:58;101328.81;;;-1.14;96.20
77410;BME280;66481;51.332;22.804;2024-01-30T06:03:59;101332.28;;;-1.02;95.69
77410;BME280;66481;51.332;22.804;2024-01-30T06:08:02;101328.81;;;-0.97;95.45
77410;BME280;66481;51.332;22.804;2024-01-30T06:12:03;101329.69;;;-1.04;95.42
77410;BME280;66481;51.332;22.804;2024-01-30T06:16:09;101327.09;;;-0.96;95.20
77410;BME280;66481;51.332;22.804;2024-01-30T06:20:11;101306.31;;;-1.04;95.91
77410;BME280;66481;51.332;22.804;2024-01-30T06:24:12;101321.03;;;-1.00;95.92
77410;BME280;66481;51.332;22.804;2024-01-30T06:28:13;101316.69;;;-0.96;95.37
77410;BME280;66481;51.332;22.804;2024-01-30T06:32:15;101331.41;;;-0.72;94.70
77410;BME280;66481;51.332;22.804;2024-01-30T06:36:16;101323.59;;;-0.61;94.90
77410;BME280;66481;51.332;22.804;2024-01-30T06:40:17;101325.34;;;-0.59;94.64
77410;BME280;66481;51.332;22.804;2024-01-30T06:44:19;101323.53;;;-0.32;93.63
77410;BME280;66481;51.332;22.804;2024-01-30T06:48:20;101343.22;;;0.29;93.65
77410;BME280;66481;51.332;22.804;2024-01-30T06:52:21;101347.91;;;1.12;91.17
77410;BME280;66481;51.332;22.804;2024-01-30T06:56:22;101338.06;;;1.45;89.02
77410;BME280;66481;51.332;22.804;2024-01-30T07:00:26;101327.91;;;1.95;86.71
77410;BME280;66481;51.332;22.804;2024-01-30T07:04:27;101331.06;;;2.86;84.25
77410;BME280;66481;51.332;22.804;2024-01-30T07:08:28;101349.53;;;3.28;82.02
77410;BME280;66481;51.332;22.804;2024-01-30T07:12:30;101324.09;;;3.37;79.72
77410;BME280;66481;51.332;22.804;2024-01-30T07:16:31;101302.25;;;3.38;78.35
77410;BME280;66481;51.332;22.804;2024-01-30T07:20:32;101337.31;;;4.19;77.42
77410;BME280;66481;51.332;22.804;2024-01-30T07:24:34;101317.72;;;4.38;75.28
77410;BME280;66481;51.332;22.804;2024-01-30T07:28:37;101312.28;;;4.46;74.32
77410;BME280;66481;51.332;22.804;2024-01-30T07:32:38;101325.81;;;5.02;73.21
77410;BME280;66481;51.332;22.804;2024-01-30T07:36:39;101322.59;;;5.60;71.96
77410;BME280;66481;51.332;22.804;2024-01-30T07:40:41;101304.09;;;5.64;70.16
77410;BME280;66481;51.332;22.804;2024-01-30T07:44:43;101336.00;;;7.00;69.21
77410;BME280;66481;51.332;22.804;2024-01-30T07:48:45;101271.16;;;5.84;68.84
77410;BME280;66481;51.332;22.804;2024-01-30T07:52:46;101245.44;;;5.33;69.11
77410;BME280;66481;51.332;22.804;2024-01-30T07:56:49;101264.81;;;5.91;69.16
77410;BME280;66481;51.332;22.804;2024-01-30T08:00:51;101263.41;;;6.66;66.31
77410;BME280;66481;51.332;22.804;2024-01-30T08:04:53;101271.44;;;6.89;65.94
77410;BME280;66481;51.332;22.804;2024-01-30T08:08:55;101209.38;;;5.39;67.81
77410;BME280;66481;51.332;22.804;2024-01-30T08:12:56;101238.81;;;5.19;69.21
77410;BME280;66481;51.332;22.804;2024-01-30T08:16:57;101281.56;;;6.18;68.77
77410;BME280;66481;51.332;22.804;2024-01-30T08:20:58;101264.56;;;6.30;67.78
77410;BME280;66481;51.332;22.804;2024-01-30T08:24:59;101237.88;;;5.83;67.04
77410;BME280;66481;51.332;22.804;2024-01-30T08:29:04;101272.78;;;6.74;66.93
77410;BME280;66481;51.332;22.804;2024-01-30T08:33:05;101233.53;;;6.68;65.03
77410;BME280;66481;51.332;22.804;2024-01-30T08:37:08;101211.94;;;6.85;64.18
77410;BME280;66481;51.332;22.804;2024-01-30T08:41:09;101256.03;;;7.78;63.38
77410;BME280;66481;51.332;22.804;2024-01-30T08:45:10;101229.44;;;7.37;63.92
77410;BME280;66481;51.332;22.804;2024-01-30T08:49:12;101251.47;;;8.28;62.30
77410;BME280;66481;51.332;22.804;2024-01-30T08:53:14;101193.25;;;7.18;61.95
77410;BME280;66481;51.332;22.804;2024-01-30T08:57:15;101234.78;;;8.28;61.69
77410;BME280;66481;51.332;22.804;2024-01-30T09:01:16;101248.16;;;8.90;60.64
77410;BME280;66481;51.332;22.804;2024-01-30T09:05:17;101228.03;;;8.65;60.74
77410;BME280;66481;51.332;22.804;2024-01-30T09:09:19;101179.25;;;7.41;61.62
77410;BME280;66481;51.332;22.804;2024-01-30T09:13:20;101214.09;;;7.95;61.73
77410;BME280;66481;51.332;22.804;2024-01-30T09:17:21;101196.44;;;7.26;63.01
77410;BME280;66481;51.332;22.804;2024-01-30T09:21:22;101195.19;;;7.13;63.52
77410;BME280;66481;51.332;22.804;2024-01-30T09:25:24;101185.56;;;7.12;63.49
77410;BME280;66481;51.332;22.804;2024-01-30T09:29:25;101190.53;;;7.20;63.54
77410;BME280;66481;51.332;22.804;2024-01-30T09:33:29;101174.50;;;6.77;63.45
77410;BME280;66481;51.332;22.804;2024-01-30T09:37:30;101206.56;;;7.13;64.58
77410;BME280;66481;51.332;22.804;2024-01-30T09:41:33;101176.25;;;6.76;64.37
77410;BME280;66481;51.332;22.804;2024-01-30T09:45:40;101196.97;;;7.83;62.41
77410;BME280;66481;51.332;22.804;2024-01-30T09:49:43;101194.06;;;7.44;62.69
77410;BME280;66481;51.332;22.804;2024-01-30T09:53:45;101164.72;;;6.81;63.69
77410;BME280;66481;51.332;22.804;2024-01-30T09:57:46;101154.97;;;6.84;63.53
77410;BME280;66481;51.332;22.804;2024-01-30T10:01:48;101180.25;;;7.61;62.63
77410;BME280;66481;51.332;22.804;2024-01-30T10:05:51;101159.03;;;7.42;62.24
77410;BME280;66481;51.332;22.804;2024-01-30T10:09:55;101177.13;;;7.97;61.55
77410;BME280;66481;51.332;22.804;2024-01-30T10:13:57;101150.66;;;8.22;60.75
77410;BME280;66481;51.332;22.804;2024-01-30T10:17:58;101167.63;;;8.59;59.76
77410;BME280;66481;51.332;22.804;2024-01-30T10:22:01;101168.00;;;8.70;60.08
77410;BME280;66481;51.332;22.804;2024-01-30T10:26:03;101159.31;;;8.25;60.11
77410;BME280;66481;51.332;22.804;2024-01-30T10:30:08;101195.66;;;9.63;59.58
77410;BME280;66481;51.332;22.804;2024-01-30T10:34:09;101137.16;;;8.52;60.58
77410;BME280;66481;51.332;22.804;2024-01-30T10:38:11;101153.94;;;9.31;59.11
77410;BME280;66481;51.332;22.804;2024-01-30T10:42:17;101135.13;;;9.18;58.12
77410;BME280;66481;51.332;22.804;2024-01-30T10:46:19;101127.25;;;9.17;59.16
77410;BME280;66481;51.332;22.804;2024-01-30T10:50:24;101111.09;;;8.44;59.70
77410;BME280;66481;51.332;22.804;2024-01-30T10:54:28;101082.75;;;8.27;59.37
77410;BME280;66481;51.332;22.804;2024-01-30T10:58:29;101083.31;;;7.70;60.35
77410;BME280;66481;51.332;22.804;2024-01-30T11:02:31;101110.66;;;8.33;60.81
77410;BME280;66481;51.332;22.804;2024-01-30T11:06:41;101108.19;;;8.50;59.89
77410;BME280;66481;51.332;22.804;2024-01-30T11:10:46;101094.22;;;8.69;59.25
77410;BME280;66481;51.332;22.804;2024-01-30T11:14:48;101102.09;;;8.05;60.47
77410;BME280;66481;51.332;22.804;2024-01-30T11:18:52;101118.63;;;8.31;60.93
77410;BME280;66481;51.332;22.804;2024-01-30T11:22:57;101122.41;;;9.08;59.39
77410;BME280;66481;51.332;22.804;2024-01-30T11:26:59;101082.75;;;8.27;60.37
77410;BME280;66481;51.332;22.804;2024-01-30T11:31:05;101091.81;;;8.42;60.52
77410;BME280;66481;51.332;22.804;2024-01-30T11:35:10;101088.38;;;7.97;60.22
77410;BME280;66481;51.332;22.804;2024-01-30T11:39:13;101083.28;;;7.48;62.53
77410;BME280;66481;51.332;22.804;2024-01-30T11:43:17;101093.78;;;7.72;62.01
77410;BME280;66481;51.332;22.804;2024-01-30T11:47:19;101101.25;;;8.05;62.01
77410;BME280;66481;51.332;22.804;2024-01-30T11:51:20;101077.38;;;7.42;62.62
77410;BME280;66481;51.332;22.804;2024-01-30T11:55:23;101084.53;;;7.84;63.42
77410;BME280;66481;51.332;22.804;2024-01-30T11:59:24;101056.16;;;7.46;62.73
77410;BME280;66481;51.332;22.804;2024-01-30T12:03:25;101070.59;;;7.12;63.38
77410;BME280;66481;51.332;22.804;2024-01-30T12:07:27;101075.69;;;7.17;63.95
77410;BME280;66481;51.332;22.804;2024-01-30T12:11:28;101064.09;;;6.99;64.18
77410;BME280;66481;51.332;22.804;2024-01-30T12:15:31;101054.53;;;6.96;64.27
77410;BME280;66481;51.332;22.804;2024-01-30T12:19:32;101062.03;;;6.84;64.88
77410;BME280;66481;51.332;22.804;2024-01-30T12:23:34;101074.03;;;6.91;65.55
77410;BME280;66481;51.332;22.804;2024-01-30T12:27:37;101045.91;;;6.44;65.20
77410;BME280;66481;51.332;22.804;2024-01-30T12:31:38;101052.06;;;6.43;65.96
77410;BME280;66481;51.332;22.804;2024-01-30T12:35:46;101065.16;;;6.45;66.89
77410;BME280;66481;51.332;22.804;2024-01-30T12:39:48;101051.31;;;6.14;67.50
77410;BME280;66481;51.332;22.804;2024-01-30T12:43:50;101059.06;;;6.17;67.73
77410;BME280;66481;51.332;22.804;2024-01-30T12:47:51;101044.81;;;5.98;67.98
77410;BME280;66481;51.332;22.804;2024-01-30T12:51:53;101055.00;;;6.07;68.35
77410;BME280;66481;51.332;22.804;2024-01-30T12:55:54;101054.88;;;6.12;67.89
77410;BME280;66481;51.332;22.804;2024-01-30T12:59:56;101048.25;;;6.00;68.40
77410;BME280;66481;51.332;22.804;2024-01-30T13:03:57;101056.88;;;6.03;68.44
77410;BME280;66481;51.332;22.804;2024-01-30T13:07:59;101057.78;;;6.04;68.17
77410;BME280;66481;51.332;22.804;2024-01-30T13:12:00;101054.53;;;5.94;68.77
77410;BME280;66481;51.332;22.804;2024-01-30T13:16:02;101045.94;;;5.62;69.04
77410;BME280;66481;51.332;22.804;2024-01-30T13:20:03;101058.19;;;5.62;69.78
77410;BME280;66481;51.332;22.804;2024-01-30T13:24:05;101056.34;;;5.65;69.69
77410;BME280;66481;51.332;22.804;2024-01-30T13:28:07;101057.44;;;5.58;69.56
77410;BME280;66481;51.332;22.804;2024-01-30T13:32:08;101058.84;;;5.42;70.09
77410;BME280;66481;51.332;22.804;2024-01-30T13:36:11;101052.16;;;5.32;70.95
77410;BME280;66481;51.332;22.804;2024-01-30T13:40:12;101067.72;;;5.36;70.93
77410;BME280;66481;51.332;22.804;2024-01-30T13:44:16;101062.91;;;5.22;71.83
77410;BME280;66481;51.332;22.804;2024-01-30T13:48:18;101063.09;;;5.16;72.28
77410;BME280;66481;51.332;22.804;2024-01-30T13:52:19;101067.56;;;5.13;73.23
77410;BME280;66481;51.332;22.804;2024-01-30T13:56:21;101079.78;;;5.14;72.45
77410;BME280;66481;51.332;22.804;2024-01-30T14:00:22;101073.78;;;5.08;73.14
77410;BME280;66481;51.332;22.804;2024-01-30T14:04:26;101067.78;;;5.05;73.43
77410;BME280;66481;51.332;22.804;2024-01-30T14:08:27;101067.16;;;4.97;73.54
77410;BME280;66481;51.332;22.804;2024-01-30T14:12:29;101061.28;;;4.88;73.62
77410;BME280;66481;51.332;22.804;2024-01-30T14:16:31;101061.38;;;4.84;73.34
77410;BME280;66481;51.332;22.804;2024-01-30T14:20:32;101065.09;;;4.77;74.32
77410;BME280;66481;51.332;22.804;2024-01-30T14:24:33;101055.88;;;4.62;74.34
77410;BME280;66481;51.332;22.804;2024-01-30T14:28:34;101054.38;;;4.53;74.78
77410;BME280;66481;51.332;22.804;2024-01-30T14:32:36;101058.19;;;4.41;75.66
77410;BME280;66481;51.332;22.804;2024-01-30T14:36:39;101060.22;;;4.30;75.45
77410;BME280;66481;51.332;22.804;2024-01-30T14:40:41;101061.44;;;4.17;76.54
77410;BME280;66481;51.332;22.804;2024-01-30T14:44:43;101065.13;;;4.09;76.50
77410;BME280;66481;51.332;22.804;2024-01-30T14:48:44;101054.94;;;3.97;76.96
77410;BME280;66481;51.332;22.804;2024-01-30T14:52:46;101054.34;;;3.86;76.63
77410;BME280;66481;51.332;22.804;2024-01-30T14:56:47;101063.13;;;3.83;76.87
77410;BME280;66481;51.332;22.804;2024-01-30T15:00:49;101067.50;;;3.84;76.48
77410;BME280;66481;51.332;22.804;2024-01-30T15:04:50;101061.81;;;3.65;77.25
77410;BME280;66481;51.332;22.804;2024-01-30T15:08:53;101053.59;;;3.43;77.23
77410;BME280;66481;51.332;22.804;2024-01-30T15:12:54;101058.94;;;3.38;77.85
77410;BME280;66481;51.332;22.804;2024-01-30T15:16:56;101057.63;;;3.19;77.91
77410;BME280;66481;51.332;22.804;2024-01-30T15:20:57;101055.09;;;3.14;78.45
77410;BME280;66481;51.332;22.804;2024-01-30T15:24:58;101070.59;;;3.24;78.57
77410;BME280;66481;51.332;22.804;2024-01-30T15:29:00;101061.41;;;3.04;78.69
77410;BME280;66481;51.332;22.804;2024-01-30T15:33:01;101057.94;;;3.04;79.41
77410;BME280;66481;51.332;22.804;2024-01-30T15:37:04;101064.16;;;2.98;79.46
77410;BME280;66481;51.332;22.804;2024-01-30T15:41:06;101062.91;;;2.74;79.83
77410;BME280;66481;51.332;22.804;2024-01-30T15:45:07;101058.59;;;2.70;80.23
77410;BME280;66481;51.332;22.804;2024-01-30T15:49:10;101063.16;;;2.60;80.17
77410;BME280;66481;51.332;22.804;2024-01-30T15:53:12;101065.94;;;2.51;81.18
77410;BME280;66481;51.332;22.804;2024-01-30T15:57:14;101062.44;;;2.52;81.39
77410;BME280;66481;51.332;22.804;2024-01-30T16:01:16;101067.91;;;2.39;81.57
77410;BME280;66481;51.332;22.804;2024-01-30T16:05:20;101062.72;;;2.36;81.58
77410;BME280;66481;51.332;22.804;2024-01-30T16:09:24;101062.88;;;2.29;81.94
77410;BME280;66481;51.332;22.804;2024-01-30T16:13:27;101055.88;;;2.29;81.83
77410;BME280;66481;51.332;22.804;2024-01-30T16:17:30;101056.84;;;2.25;81.70
77410;BME280;66481;51.332;22.804;2024-01-30T16:21:33;101054.41;;;2.13;81.91
77410;BME280;66481;51.332;22.804;2024-01-30T16:25:37;101053.81;;;1.97;82.23
77410;BME280;66481;51.332;22.804;2024-01-30T16:29:40;101047.06;;;1.83;82.46
77410;BME280;66481;51.332;22.804;2024-01-30T16:33:42;101061.88;;;1.83;82.83
77410;BME280;66481;51.332;22.804;2024-01-30T16:37:44;101059.41;;;1.75;82.31
77410;BME280;66481;51.332;22.804;2024-01-30T16:41:46;101059.41;;;1.74;82.85
77410;BME280;66481;51.332;22.804;2024-01-30T16:51:09;101067.91;;;1.86;82.35
77410;BME280;66481;51.332;22.804;2024-01-30T16:55:10;101062.59;;;1.93;81.70
77410;BME280;66481;51.332;22.804;2024-01-30T16:59:12;101057.63;;;1.77;81.70
77410;BME280;66481;51.332;22.804;2024-01-30T17:03:14;101050.06;;;1.59;82.06
77410;BME280;66481;51.332;22.804;2024-01-30T17:07:15;101043.25;;;1.50;82.09
77410;BME280;66481;51.332;22.804;2024-01-30T17:11:16;101050.25;;;1.46;82.20
77410;BME280;66481;51.332;22.804;2024-01-30T17:15:19;101054.50;;;1.54;81.84
77410;BME280;66481;51.332;22.804;2024-01-30T17:19:20;101037.91;;;1.59;81.70
77410;BME280;66481;51.332;22.804;2024-01-30T17:23:22;101039.81;;;1.48;81.97
77410;BME280;66481;51.332;22.804;2024-01-30T17:27:26;101046.06;;;1.36;82.88
77410;BME280;66481;51.332;22.804;2024-01-30T17:31:27;101049.63;;;1.30;82.47
77410;BME280;66481;51.332;22.804;2024-01-30T17:35:29;101050.69;;;1.16;83.72
77410;BME280;66481;51.332;22.804;2024-01-30T17:39:30;101054.16;;;1.16;84.01
77410;BME280;66481;51.332;22.804;2024-01-30T17:43:33;101066.28;;;1.17;84.35
77410;BME280;66481;51.332;22.804;2024-01-30T17:47:35;101056.00;;;1.06;84.17
77410;BME280;66481;51.332;22.804;2024-01-30T17:51:39;101065.34;;;1.23;84.07
77410;BME280;66481;51.332;22.804;2024-01-30T17:55:43;101057.59;;;1.18;84.25
77410;BME280;66481;51.332;22.804;2024-01-30T17:59:49;101046.44;;;1.07;84.06
77410;BME280;66481;51.332;22.804;2024-01-30T18:03:52;101043.94;;;0.99;84.76
77410;BME280;66481;51.332;22.804;2024-01-30T18:07:56;101061.94;;;1.18;85.30
77410;BME280;66481;51.332;22.804;2024-01-30T18:11:58;101054.34;;;1.01;85.36
77410;BME280;66481;51.332;22.804;2024-01-30T18:16:00;101051.03;;;0.86;85.36
77410;BME280;66481;51.332;22.804;2024-01-30T18:20:01;101049.34;;;0.85;85.71
77410;BME280;66481;51.332;22.804;2024-01-30T18:24:03;101045.09;;;0.78;85.89
77410;BME280;66481;51.332;22.804;2024-01-30T18:28:05;101042.53;;;0.72;86.65
77410;BME280;66481;51.332;22.804;2024-01-30T18:32:07;101044.28;;;0.71;86.40
77410;BME280;66481;51.332;22.804;2024-01-30T18:36:10;101043.38;;;0.72;86.83
77410;BME280;66481;51.332;22.804;2024-01-30T18:40:12;101037.25;;;0.78;86.36
77410;BME280;66481;51.332;22.804;2024-01-30T18:44:13;101039.78;;;0.84;86.61
77410;BME280;66481;51.332;22.804;2024-01-30T18:48:15;101041.56;;;0.79;86.33
77410;BME280;66481;51.332;22.804;2024-01-30T18:52:17;101033.91;;;0.68;86.36
77410;BME280;66481;51.332;22.804;2024-01-30T18:56:19;101034.91;;;0.55;87.23
77410;BME280;66481;51.332;22.804;2024-01-30T19:00:21;101043.56;;;0.57;87.29
77410;BME280;66481;51.332;22.804;2024-01-30T19:04:24;101027.91;;;0.60;86.85
77410;BME280;66481;51.332;22.804;2024-01-30T19:08:25;101032.38;;;0.50;87.50
77410;BME280;66481;51.332;22.804;2024-01-30T19:12:29;101029.00;;;0.39;87.75
77410;BME280;66481;51.332;22.804;2024-01-30T19:16:32;101026.41;;;0.37;88.46
77410;BME280;66481;51.332;22.804;2024-01-30T19:20:35;101038.50;;;0.43;88.17
77410;BME280;66481;51.332;22.804;2024-01-30T19:24:37;101032.44;;;0.44;88.13
77410;BME280;66481;51.332;22.804;2024-01-30T19:28:39;101023.81;;;0.37;88.11
77410;BME280;66481;51.332;22.804;2024-01-30T19:32:41;101035.69;;;0.65;87.15
77410;BME280;66481;51.332;22.804;2024-01-30T19:36:43;101017.34;;;0.72;86.39
77410;BME280;66481;51.332;22.804;2024-01-30T19:40:44;101015.81;;;0.56;86.04
77410;BME280;66481;51.332;22.804;2024-01-30T19:44:47;101026.19;;;0.59;86.27
77410;BME280;66481;51.332;22.804;2024-01-30T19:48:48;101026.19;;;0.59;86.03
77410;BME280;66481;51.332;22.804;2024-01-30T19:52:50;101020.94;;;0.62;85.79
77410;BME280;66481;51.332;22.804;2024-01-30T19:56:51;101022.84;;;0.46;86.60
77410;BME280;66481;51.332;22.804;2024-01-30T20:00:53;101017.47;;;0.62;85.96
77410;BME280;66481;51.332;22.804;2024-01-30T20:04:54;101008.00;;;0.56;85.57
77410;BME280;66481;51.332;22.804;2024-01-30T20:08:56;101000.94;;;0.66;85.64
77410;BME280;66481;51.332;22.804;2024-01-30T20:12:58;100992.41;;;0.51;85.80
77410;BME280;66481;51.332;22.804;2024-01-30T20:17:01;100994.94;;;0.59;85.88
77410;BME280;66481;51.332;22.804;2024-01-30T20:21:03;100980.19;;;0.58;85.82
77410;BME280;66481;51.332;22.804;2024-01-30T20:25:07;100982.91;;;0.50;85.88
77410;BME280;66481;51.332;22.804;2024-01-30T20:29:09;100975.91;;;0.54;85.46
77410;BME280;66481;51.332;22.804;2024-01-30T20:33:10;100971.69;;;0.42;85.81
77410;BME280;66481;51.332;22.804;2024-01-30T20:37:15;100977.72;;;0.47;85.81
77410;BME280;66481;51.332;22.804;2024-01-30T20:41:16;100979.44;;;0.48;86.17
77410;BME280;66481;51.332;22.804;2024-01-30T20:45:19;100981.25;;;0.42;86.07
77410;BME280;66481;51.332;22.804;2024-01-30T20:49:21;100982.16;;;0.37;86.36
77410;BME280;66481;51.332;22.804;2024-01-30T20:53:23;100978.72;;;0.34;86.18
77410;BME280;66481;51.332;22.804;2024-01-30T20:57:24;100973.56;;;0.29;86.24
77410;BME280;66481;51.332;22.804;2024-01-30T21:01:26;100983.22;;;0.20;87.01